Matagami Airport
CYNM : now visible

Airfield :











YOU CAN JOIN US ON...

 
LOGIN :

Register | Disclaimer

   EN    FR    IT 

 









Legend :    VFR   Marginal VFR   IFR   Intensive IFR   Very Intensive IFR
Visi :
Ceiling :
>= 8 km
>= 3000ft
5 to 8 km
1000 to 3000 ft
1500m to 5 km
500 to 1000 ft
800 to 1500m
200 to 500 ft
< 800m
< 200 ft
Symbols :   Thunderstorms  Fog  Heavy snow  Heavy precipitations  Wind > 20 kt






- Airport Elevation : 918 ft
- IATA code : YNM


CYNM - Matagami

CURRENT METAR :
  • 080400Z AUTO 34002KT 9SM FEW230 SCT250 19/18 A2983 RMK LTNG DIST NE S SLP107 DENSITY ALT 1600FT

EXPIRED METARs :
  • 080327Z AUTO 27008KT 9SM FEW065 BKN110 BKN150 OVC240 20/18 A2982 RMK LTNG DIST N NE S SLP103 DENSITY ALT 1700FT
  • 080312Z AUTO 25012G20KT 9SM -RA FEW065 BKN100 OVC120 21/18 A2983 RMK LTNG DIST N S SW WSHFT AT 0300Z PRESRR SLP106 DENSITY ALT 1800FT
  • 080300Z AUTO 17008KT 9SM -RA OVC095 20/18 A2981 RMK LTNG DIST N SW SLP099 DENSITY ALT 1700FT
  • 080258Z AUTO 17010KT 9SM RA OVC095 19/18 A2981 RMK LTNG DIST N SW WSHFT AT 0247Z SLP098 DENSITY ALT 1700FT
  • 080243Z AUTO 00000KT 9SM -RA BKN100 BKN120 OVC160 19/18 A2982 RMK LTNG DIST SW W SLP103 DENSITY ALT 1700FT
  • 080200Z AUTO 00000KT 7SM SCT210 BKN230 19/18 A2981 RMK SLP098 DENSITY ALT 1700FT

TAF N/A
CZUL FIR / North America



MET'MAP, your aeronautical weather chart ! - Copyright ORBIFLY December 2007 - Disclaimer

ORBIFLY MET'MAP TEAM :

Programming & Development : Alexandra Zaïnal
Concept & original design : Baudouin d'Aumeries
Assistance for programming : Marc-Olivier Méhu
Technical & hardware support : Manuel Goepfert

Contact : metmap@orbifly.com




SOURCES & CREDITS :

   NOAA       Earth
Advisory